Terminal Aerodrome Forecast
Issued by NWS

Home | Current Version | Previous Version | Text Only | Print | Product List | Glossary On
Versions: 1 2 3 4 5 6 7 8 9 10 11 12 13 14 15 16 17 18 19 20 21 22 23 24
000
FTUS43 KLSX 261139
TAFCPS
TAF
KCPS 261139Z 2612/2712 VRB04KT P6SM BKN070
     FM261900 VRB05KT 5SM -RA VCTS OVC040CB
      TEMPO 2619/2621 VRB15G25KT 3SM TSRA OVC030CB
     FM262100 15007KT P6SM SCT050
     FM270600 14007KT 4SM -RA BR VCTS OVC040CB=

USA.gov is the U.S. government's official web portal to all federal, state and local government web resources and services.